Time;durP1;ratioP1;P1;durP2;ratioP2;P2;SDS_P1;SDS_P2;PMS_P1;PMS_P2;Temp;Humidity;BMP_temperature;BMP_pressure;BME280_temperature;BME280_humidity;BME280_pressure;Samples;Min_cycle;Max_cycle;Signal;HPM_P1;HPM_P2
2022/03/19 00:02:36;;;;;;;11.93;8.57;;;21.80;67.40;;;;;;7934883;28;20242;-50
2022/03/19 00:06:22;;;;;;;10.32;8.15;;;21.80;67.40;;;;;;7935029;28;20252;-49
2022/03/19 00:10:09;;;;;;;10.65;7.70;;;21.80;67.40;;;;;;7934654;28;20259;-51
2022/03/19 00:13:55;;;;;;;10.52;7.80;;;21.70;67.30;;;;;;7934625;28;20275;-53
2022/03/19 00:17:40;;;;;;;13.20;8.32;;;21.70;67.30;;;;;;7934694;28;20203;-49
2022/03/19 00:21:26;;;;;;;12.18;8.02;;;21.70;67.30;;;;;;7934275;28;20179;-51
2022/03/19 00:25:12;;;;;;;10.80;8.40;;;21.60;67.20;;;;;;7934534;28;20566;-53
2022/03/19 00:28:57;;;;;;;13.55;8.18;;;21.60;67.20;;;;;;7934675;28;20187;-51
2022/03/19 00:32:43;;;;;;;14.15;8.30;;;21.60;67.20;;;;;;7933973;28;20654;-48
2022/03/19 00:36:28;;;;;;;10.88;8.02;;;21.50;67.20;;;;;;7934112;28;20203;-48
2022/03/19 00:40:17;;;;;;;10.50;7.72;;;21.50;67.20;;;;;;7933796;28;20176;-50
2022/03/19 00:44:03;;;;;;;11.70;7.55;;;21.50;67.20;;;;;;7933071;28;20198;-49
2022/03/19 00:47:48;;;;;;;12.88;7.50;;;21.40;67.10;;;;;;7933889;28;20625;-51
2022/03/19 00:51:38;;;;;;;11.40;8.02;;;21.40;67.10;;;;;;7933444;28;20187;-51
2022/03/19 00:55:24;;;;;;;10.07;7.60;;;21.40;67.10;;;;;;7933394;28;20688;-51
2022/03/19 00:59:09;;;;;;;12.95;8.82;;;21.30;67.10;;;;;;7932992;28;20552;-49
2022/03/19 01:02:55;;;;;;;10.15;7.63;;;21.30;67.10;;;;;;7933214;28;20183;-52
2022/03/19 01:06:41;;;;;;;12.82;7.97;;;21.30;67.10;;;;;;7933166;28;20263;-53
2022/03/19 01:10:28;;;;;;;10.85;7.72;;;21.30;67.00;;;;;;7932763;28;20172;-52
2022/03/19 01:14:13;;;;;;;11.15;7.88;;;21.20;67.00;;;;;;7932913;28;20198;-50
2022/03/19 01:18:00;;;;;;;11.82;8.30;;;21.20;67.00;;;;;;7932790;28;20203;-49
2022/03/19 01:21:46;;;;;;;8.55;7.32;;;21.20;66.90;;;;;;7932510;28;20171;-50
2022/03/19 01:25:31;;;;;;;11.07;8.00;;;21.20;67.00;;;;;;7932679;28;20180;-48
2022/03/19 01:29:17;;;;;;;12.98;7.97;;;21.20;67.00;;;;;;7932219;28;20662;-51
2022/03/19 01:33:02;;;;;;;9.77;7.60;;;21.10;66.90;;;;;;7932438;28;20678;-50
2022/03/19 01:36:48;;;;;;;11.77;8.73;;;21.10;66.90;;;;;;7932272;28;20260;-48
2022/03/19 01:40:33;;;;;;;11.35;7.78;;;21.10;66.80;;;;;;7932069;28;20203;-53
2022/03/19 01:44:20;;;;;;;9.93;7.60;;;21.10;66.90;;;;;;7932184;28;20223;-52
2022/03/19 01:48:06;;;;;;;10.32;7.68;;;21.10;66.80;;;;;;7932219;28;20207;-50
2022/03/19 01:51:52;;;;;;;10.80;7.90;;;21.00;66.80;;;;;;7931637;28;20195;-53
2022/03/19 01:55:38;;;;;;;10.90;8.10;;;21.00;66.80;;;;;;7931709;28;20683;-51
2022/03/19 01:59:26;;;;;;;9.65;7.55;;;21.00;66.80;;;;;;7931336;28;20172;-48
2022/03/19 02:03:12;;;;;;;10.88;7.30;;;21.00;66.70;;;;;;7931972;28;20224;-47
2022/03/19 02:06:58;;;;;;;9.90;7.05;;;20.90;66.70;;;;;;7931906;28;20699;-48
2022/03/19 02:10:44;;;;;;;11.00;7.43;;;20.90;66.70;;;;;;7931482;28;20225;-48
2022/03/19 02:14:36;;;;;;;9.10;7.43;;;20.90;66.70;;;;;;7931696;28;20665;-48
2022/03/19 02:18:22;;;;;;;12.65;7.72;;;20.90;66.60;;;;;;7931716;28;20180;-48
2022/03/19 02:22:07;;;;;;;13.10;8.00;;;20.90;66.70;;;;;;7931304;28;20200;-49
2022/03/19 02:25:53;;;;;;;9.05;7.40;;;20.80;66.60;;;;;;7931539;28;20179;-49
2022/03/19 02:29:38;;;;;;;12.73;7.70;;;20.80;66.60;;;;;;7931484;28;20172;-48
2022/03/19 02:33:24;;;;;;;12.48;7.57;;;20.80;66.60;;;;;;7931540;28;20199;-51
2022/03/19 02:37:09;;;;;;;10.60;7.50;;;20.80;67.40;;;;;;7931326;28;20238;-48
2022/03/19 02:40:55;;;;;;;12.00;7.65;;;20.80;66.50;;;;;;7931125;28;20275;-53
2022/03/19 02:44:40;;;;;;;8.85;7.40;;;20.80;66.60;;;;;;7931234;28;20200;-51
2022/03/19 02:48:26;;;;;;;9.63;7.20;;;20.80;66.60;;;;;;7931323;28;20225;-48
2022/03/19 02:52:11;;;;;;;9.82;7.88;;;20.80;66.40;;;;;;7931126;28;20527;-51
2022/03/19 02:55:57;;;;;;;10.15;7.47;;;20.70;66.40;;;;;;7931137;28;20204;-51
2022/03/19 02:59:42;;;;;;;10.80;7.45;;;20.70;66.50;;;;;;7930906;28;20305;-47
2022/03/19 03:03:28;;;;;;;11.45;6.93;;;20.70;66.40;;;;;;7931041;28;20265;-48
2022/03/19 03:07:14;;;;;;;12.88;7.95;;;20.70;66.40;;;;;;7935830;28;20280;-50
2022/03/19 03:11:00;;;;;;;10.90;7.78;;;20.60;66.30;;;;;;7936813;28;20183;-53
2022/03/19 03:14:45;;;;;;;11.23;7.35;;;20.60;66.20;;;;;;7936672;28;20191;-47
2022/03/19 03:18:31;;;;;;;10.00;7.20;;;20.60;66.20;;;;;;7936600;28;20164;-48
2022/03/19 03:22:17;;;;;;;11.13;7.63;;;20.60;66.20;;;;;;7934961;28;20256;-48
2022/03/19 03:26:02;;;;;;;11.48;7.70;;;20.60;66.20;;;;;;7936339;28;20583;-50
2022/03/19 03:29:48;;;;;;;12.10;7.68;;;20.60;66.20;;;;;;7935033;28;20192;-52
2022/03/19 03:33:33;;;;;;;10.65;7.10;;;20.60;66.20;;;;;;7936919;28;20278;-50
2022/03/19 03:37:19;;;;;;;8.43;6.75;;;20.50;66.20;;;;;;7936496;28;20325;-51
2022/03/19 03:41:05;;;;;;;9.43;6.88;;;20.50;66.20;;;;;;7935993;28;20633;-48
2022/03/19 03:44:54;;;;;;;9.70;6.75;;;20.50;66.20;;;;;;7936187;28;20195;-50
2022/03/19 03:48:39;;;;;;;8.93;6.50;;;20.50;66.20;;;;;;7935821;28;20186;-48
2022/03/19 03:52:25;;;;;;;8.93;6.72;;;20.50;66.20;;;;;;7935671;28;20665;-50
2022/03/19 03:56:11;;;;;;;10.60;7.28;;;20.50;66.20;;;;;;7935466;28;20199;-51
2022/03/19 03:59:57;;;;;;;10.40;7.70;;;20.50;66.20;;;;;;7935260;28;20305;-49
2022/03/19 04:03:42;;;;;;;9.35;6.85;;;20.40;66.10;;;;;;7936196;28;20195;-50
2022/03/19 04:07:28;;;;;;;10.27;6.75;;;20.50;66.20;;;;;;7935366;28;20179;-50
2022/03/19 04:11:13;;;;;;;9.73;6.82;;;20.40;66.20;;;;;;7934824;28;20184;-50
2022/03/19 04:14:59;;;;;;;9.50;6.53;;;20.40;66.10;;;;;;7934806;28;20223;-51
2022/03/19 04:18:44;;;;;;;9.63;6.55;;;20.30;66.00;;;;;;7934872;28;20168;-48
2022/03/19 04:22:41;;;;;;;8.63;6.47;;;20.30;65.90;;;;;;7934646;28;20245;-49
2022/03/19 04:26:26;;;;;;;8.55;6.20;;;20.40;66.00;;;;;;7934802;28;20564;-53
2022/03/19 04:30:13;;;;;;;10.00;6.82;;;20.30;66.00;;;;;;7934500;28;20259;-53
2022/03/19 04:33:59;;;;;;;11.10;6.43;;;20.30;67.00;;;;;;7931602;28;20256;-51
2022/03/19 04:37:44;;;;;;;9.98;6.25;;;20.30;66.10;;;;;;7903944;28;20205;-48
2022/03/19 04:41:31;;;;;;;10.05;6.15;;;20.30;66.10;;;;;;7931705;28;20178;-50
2022/03/19 04:45:16;;;;;;;9.60;6.35;;;20.30;66.00;;;;;;7931663;28;20204;-50
2022/03/19 04:49:02;;;;;;;10.57;6.30;;;20.30;66.10;;;;;;7924942;28;20202;-48
2022/03/19 04:52:50;;;;;;;7.55;5.50;;;20.20;66.00;;;;;;7933743;28;20581;-48
2022/03/19 04:56:35;;;;;;;8.38;5.95;;;20.30;66.00;;;;;;7934034;28;20199;-48
2022/03/19 05:00:21;;;;;;;10.93;6.00;;;20.20;66.00;;;;;;7925605;28;20200;-48
2022/03/19 05:04:07;;;;;;;13.48;6.20;;;20.20;66.00;;;;;;7901611;28;20261;-50
2022/03/19 05:07:54;;;;;;;16.35;7.13;;;20.20;65.20;;;;;;7918424;28;20246;-50
2022/03/19 05:11:41;;;;;;;19.52;7.40;;;20.20;63.40;;;;;;7933655;28;20182;-48
2022/03/19 05:15:26;;;;;;;38.38;8.00;;;20.10;62.10;;;;;;7933762;28;20216;-50
2022/03/19 05:19:12;;;;;;;16.27;7.75;;;20.00;61.70;;;;;;7922759;28;20200;-50
2022/03/19 05:22:58;;;;;;;26.52;7.68;;;19.90;61.90;;;;;;7901955;28;20257;-48
2022/03/19 05:26:43;;;;;;;21.88;7.72;;;19.90;61.50;;;;;;7901981;28;20275;-49
2022/03/19 05:30:30;;;;;;;17.52;6.80;;;19.80;61.20;;;;;;7900128;28;20263;-52
2022/03/19 05:34:31;;;;;;;18.60;6.30;;;19.80;61.60;;;;;;7900156;28;20720;-52
2022/03/19 05:38:16;;;;;;;28.95;6.53;;;19.80;62.10;;;;;;7901413;28;20200;-52
2022/03/19 05:42:03;;;;;;;22.05;7.18;;;19.80;62.80;;;;;;7927975;28;20669;-49
2022/03/19 05:45:48;;;;;;;17.52;6.68;;;19.90;63.40;;;;;;7901448;28;20253;-49
2022/03/19 05:49:34;;;;;;;17.08;5.97;;;19.90;64.00;;;;;;7900322;28;20196;-51
2022/03/19 05:53:20;;;;;;;46.70;8.00;;;19.90;64.20;;;;;;7915770;28;20223;-51
2022/03/19 05:57:05;;;;;;;19.42;6.63;;;20.00;64.20;;;;;;7900574;28;20261;-51
2022/03/19 06:00:50;;;;;;;13.45;5.70;;;20.00;64.40;;;;;;7900349;28;20200;-50
2022/03/19 06:04:37;;;;;;;15.82;6.18;;;20.10;64.40;;;;;;7924730;28;20203;-51
2022/03/19 06:08:22;;;;;;;18.88;5.82;;;20.10;64.20;;;;;;7931811;28;20187;-50
2022/03/19 06:12:08;;;;;;;11.73;5.95;;;20.10;64.00;;;;;;7931787;28;20290;-53
2022/03/19 06:15:54;;;;;;;22.83;6.00;;;20.20;64.50;;;;;;7931926;28;20687;-52
2022/03/19 06:19:39;;;;;;;68.55;9.35;;;20.20;64.40;;;;;;7931678;28;20689;-55
2022/03/19 06:23:25;;;;;;;37.88;8.45;;;20.30;65.80;;;;;;7931521;28;20211;-54
2022/03/19 06:27:10;;;;;;;38.10;7.90;;;20.30;62.80;;;;;;7931672;28;20240;-52
2022/03/19 06:30:56;;;;;;;54.17;9.52;;;20.20;64.00;;;;;;7931491;28;20206;-53
2022/03/19 06:34:42;;;;;;;35.28;10.25;;;20.30;64.40;;;;;;7911597;28;20583;-54
2022/03/19 06:38:29;;;;;;;59.25;11.80;;;20.40;64.80;;;;;;7906890;28;20211;-56
2022/03/19 06:42:15;;;;;;;27.80;9.32;;;20.50;64.90;;;;;;7936468;28;20690;-54
2022/03/19 06:46:00;;;;;;;33.25;8.55;;;20.60;64.80;;;;;;7937882;28;20569;-53
2022/03/19 06:49:46;;;;;;;24.88;9.05;;;20.80;64.80;;;;;;7937388;28;20200;-52
2022/03/19 06:53:31;;;;;;;27.83;7.40;;;20.90;64.70;;;;;;7937761;28;20270;-50
2022/03/19 06:57:17;;;;;;;26.50;7.93;;;21.20;64.60;;;;;;7937491;28;20312;-54
2022/03/19 07:01:03;;;;;;;26.90;7.82;;;21.30;64.40;;;;;;7937160;28;20243;-53
2022/03/19 07:04:48;;;;;;;19.70;6.10;;;21.50;64.20;;;;;;7937087;28;20192;-53
2022/03/19 07:08:34;;;;;;;29.23;6.20;;;21.70;64.10;;;;;;7937091;28;20195;-53
2022/03/19 07:12:20;;;;;;;20.30;5.57;;;21.70;63.90;;;;;;7936625;28;20192;-55
2022/03/19 07:16:06;;;;;;;16.60;5.95;;;21.80;63.90;;;;;;7936675;28;20273;-53
2022/03/19 07:19:52;;;;;;;16.10;5.80;;;21.90;63.80;;;;;;7935834;28;20179;-52
2022/03/19 07:23:37;;;;;;;20.85;5.40;;;21.90;63.80;;;;;;7936263;28;20204;-53
2022/03/19 07:27:23;;;;;;;19.52;5.57;;;21.90;63.70;;;;;;7936315;28;20171;-52
2022/03/19 07:31:09;;;;;;;20.00;5.28;;;22.00;63.70;;;;;;7918435;28;20191;-53
2022/03/19 07:34:55;;;;;;;18.73;5.57;;;22.10;63.50;;;;;;7904119;28;20629;-53
2022/03/19 07:38:40;;;;;;;37.85;6.90;;;22.00;63.50;;;;;;7904158;28;20172;-53
2022/03/19 07:42:26;;;;;;;52.35;6.07;;;22.00;63.50;;;;;;7903984;28;20216;-53
2022/03/19 07:46:12;;;;;;;31.45;5.60;;;22.00;63.60;;;;;;7904161;28;20185;-52
2022/03/19 07:49:57;;;;;;;39.17;6.38;;;22.00;63.70;;;;;;7903457;28;20184;-53
2022/03/19 07:53:43;;;;;;;25.70;5.53;;;22.10;63.70;;;;;;7903301;28;20200;-52
2022/03/19 07:57:29;;;;;;;21.52;6.18;;;22.10;63.80;;;;;;7904063;28;20208;-50
2022/03/19 08:01:14;;;;;;;20.23;6.53;;;22.10;63.70;;;;;;7903747;28;20589;-53
2022/03/19 08:05:02;;;;;;;19.85;6.03;;;22.20;63.70;;;;;;7903844;28;20197;-51
2022/03/19 08:08:48;;;;;;;22.33;5.60;;;22.20;63.60;;;;;;7903739;28;20252;-51
2022/03/19 08:12:35;;;;;;;22.25;5.88;;;22.20;63.50;;;;;;7903112;28;20204;-52
2022/03/19 08:16:20;;;;;;;26.15;7.05;;;22.30;63.60;;;;;;7907792;28;20208;-54
2022/03/19 08:20:06;;;;;;;27.52;6.97;;;22.30;63.10;;;;;;7902737;28;20214;-52
2022/03/19 08:23:52;;;;;;;20.98;6.93;;;22.30;63.40;;;;;;7902888;28;20545;-53
2022/03/19 08:27:38;;;;;;;17.85;7.50;;;22.30;63.40;;;;;;7902914;28;20187;-54
2022/03/19 08:31:23;;;;;;;18.55;7.22;;;22.30;63.50;;;;;;7902207;28;20187;-53
2022/03/19 08:35:09;;;;;;;18.77;6.72;;;22.30;63.40;;;;;;7902050;28;20261;-56
2022/03/19 08:42:59;;;;;;;17.38;7.07;;;22.50;63.30;;;;;;7902629;28;20580;-56
2022/03/19 08:46:45;;;;;;;17.17;7.15;;;22.50;63.30;;;;;;7902465;28;20184;-56
2022/03/19 08:50:30;;;;;;;19.00;7.03;;;22.60;63.20;;;;;;7901670;28;20216;-52
2022/03/19 08:54:19;;;;;;;16.13;6.93;;;22.80;63.20;;;;;;7901928;28;20192;-53
2022/03/19 08:58:04;;;;;;;15.25;6.93;;;22.80;63.00;;;;;;7901720;28;20200;-53
2022/03/19 09:01:51;;;;;;;14.52;6.47;;;23.00;63.10;;;;;;7900823;28;20164;-51
2022/03/19 09:05:37;;;;;;;14.40;6.55;;;23.10;63.00;;;;;;7909390;28;20185;-50
2022/03/19 09:09:23;;;;;;;15.52;7.28;;;23.20;62.90;;;;;;7910130;28;20454;-56
2022/03/19 09:13:09;;;;;;;20.30;7.00;;;23.00;63.60;;;;;;7910931;28;20207;-51
2022/03/19 09:16:54;;;;;;;31.60;7.05;;;23.00;62.80;;;;;;7900966;28;20261;-47
2022/03/19 09:20:40;;;;;;;25.35;6.70;;;23.10;63.40;;;;;;7901084;28;20626;-51
2022/03/19 09:24:25;;;;;;;17.15;6.18;;;23.20;63.20;;;;;;7901339;28;20566;-48
2022/03/19 09:28:11;;;;;;;18.58;6.38;;;23.20;63.00;;;;;;7914698;28;20207;-53
2022/03/19 09:31:56;;;;;;;12.30;5.95;;;23.30;62.90;;;;;;7924949;28;20661;-47
2022/03/19 09:35:42;;;;;;;19.30;7.18;;;23.30;63.20;;;;;;7901255;28;20192;-48
2022/03/19 09:39:27;;;;;;;14.30;5.85;;;23.30;63.40;;;;;;7915773;28;20176;-52
2022/03/19 09:43:13;;;;;;;16.60;6.63;;;23.30;63.40;;;;;;7927752;28;20192;-49
2022/03/19 09:46:58;;;;;;;13.00;6.50;;;23.30;63.40;;;;;;7901128;28;20646;-50
2022/03/19 09:50:45;;;;;;;25.27;5.95;;;22.90;56.50;;;;;;7931443;28;20548;-49
2022/03/19 09:54:31;;;;;;;22.13;6.53;;;22.40;62.00;;;;;;7910663;28;20200;-51
2022/03/19 09:58:16;;;;;;;21.00;6.22;;;22.40;63.00;;;;;;7914867;28;20211;-50
2022/03/19 10:02:06;;;;;;;26.23;6.30;;;22.40;59.70;;;;;;7915957;28;20664;-52
2022/03/19 10:09:57;;;;;;;47.90;7.25;;;22.20;61.30;;;;;;7913635;28;20820;-50
2022/03/19 10:13:45;;;;;;;33.90;6.03;;;22.30;62.60;;;;;;7921532;28;20734;-50
2022/03/19 10:17:36;;;;;;;37.80;6.43;;;22.40;62.70;;;;;;7923213;28;20683;-50
2022/03/19 10:21:22;;;;;;;18.17;6.15;;;22.60;62.50;;;;;;7924816;28;20175;-50
2022/03/19 10:25:09;;;;;;;26.48;5.20;;;22.80;62.20;;;;;;7921262;28;20241;-51
2022/03/19 10:28:56;;;;;;;30.08;5.72;;;22.90;62.50;;;;;;7920265;28;20172;-48
2022/03/19 10:32:44;;;;;;;36.25;5.25;;;23.10;62.60;;;;;;7905808;28;20581;-52
2022/03/19 10:36:35;;;;;;;32.10;5.18;;;23.30;62.60;;;;;;7924904;28;20196;-51
2022/03/19 10:40:21;;;;;;;27.63;5.40;;;23.50;62.40;;;;;;7917326;28;20317;-53
2022/03/19 10:44:18;;;;;;;12.32;5.00;;;23.70;62.10;;;;;;7922331;28;20188;-53
2022/03/19 10:48:04;;;;;;;19.05;5.03;;;23.90;62.00;;;;;;7936032;28;20190;-50
2022/03/19 10:51:55;;;;;;;18.85;4.38;;;24.00;61.70;;;;;;7919956;28;20197;-48
2022/03/19 10:55:40;;;;;;;17.10;5.20;;;24.20;61.50;;;;;;7936421;28;20649;-51
2022/03/19 10:59:30;;;;;;;24.95;5.10;;;24.20;61.20;;;;;;7919201;28;20237;-50
2022/03/19 11:03:24;;;;;;;19.88;5.32;;;24.20;61.20;;;;;;7907199;28;20197;-49
2022/03/19 11:07:11;;;;;;;11.07;4.45;;;24.20;61.20;;;;;;7905680;28;20616;-53
2022/03/19 11:10:58;;;;;;;10.63;4.60;;;24.20;61.20;;;;;;7922093;28;20188;-47
2022/03/19 11:14:45;;;;;;;12.98;4.75;;;24.20;61.30;;;;;;7905900;28;20787;-50
2022/03/19 11:18:31;;;;;;;12.23;5.00;;;24.10;61.50;;;;;;7921521;28;20207;-47
2022/03/19 11:22:17;;;;;;;20.02;5.38;;;24.00;61.70;;;;;;7935965;28;20262;-49
2022/03/19 11:26:03;;;;;;;15.20;5.18;;;23.90;61.80;;;;;;7935392;28;20180;-49
2022/03/19 11:29:48;;;;;;;9.57;5.20;;;23.90;62.00;;;;;;7926550;28;20548;-48
2022/03/19 11:33:36;;;;;;;13.52;5.25;;;23.80;62.10;;;;;;7904364;28;20219;-47
2022/03/19 11:37:21;;;;;;;13.82;5.43;;;23.70;62.30;;;;;;7904284;28;20565;-50
2022/03/19 11:41:29;;;;;;;13.95;5.88;;;23.70;62.40;;;;;;7904001;28;20173;-48
2022/03/19 11:45:15;;;;;;;14.13;5.00;;;23.70;62.50;;;;;;7903622;28;20547;-50
2022/03/19 11:49:00;;;;;;;10.27;5.10;;;23.60;62.40;;;;;;7903681;28;20279;-47
2022/03/19 11:52:46;;;;;;;18.63;5.32;;;23.60;62.50;;;;;;7904891;28;20603;-50
2022/03/19 11:56:41;;;;;;;12.10;5.50;;;23.50;62.50;;;;;;7904838;28;20295;-47
2022/03/19 12:00:28;;;;;;;10.05;4.95;;;23.50;62.50;;;;;;7907335;28;20184;-49
2022/03/19 12:04:15;;;;;;;12.95;5.78;;;23.50;62.40;;;;;;7926848;28;20613;-47
2022/03/19 12:08:15;;;;;;;10.95;5.93;;;23.40;62.50;;;;;;7918410;28;20199;-50
2022/03/19 12:12:21;;;;;;;10.30;5.90;;;23.40;62.00;;;;;;7909772;28;20581;-50
2022/03/19 12:16:08;;;;;;;12.27;5.97;;;23.30;62.40;;;;;;7931447;28;20199;-51
2022/03/19 12:20:02;;;;;;;13.32;5.55;;;23.30;62.40;;;;;;7920978;28;20189;-49
2022/03/19 12:24:06;;;;;;;10.38;5.57;;;23.30;62.40;;;;;;7923987;28;20292;-50
2022/03/19 12:27:56;;;;;;;13.57;5.72;;;23.20;62.40;;;;;;7904886;27;20181;-50
2022/03/19 12:31:47;;;;;;;11.68;5.97;;;23.20;62.10;;;;;;7927003;28;20187;-49
2022/03/19 12:35:42;;;;;;;12.05;5.82;;;23.20;62.30;;;;;;7917137;28;20203;-52
2022/03/19 12:39:28;;;;;;;10.00;5.13;;;23.10;62.30;;;;;;7928111;28;20180;-53
2022/03/19 12:43:13;;;;;;;9.63;5.38;;;23.00;62.10;;;;;;7934034;28;20211;-51
2022/03/19 12:47:05;;;;;;;10.35;5.65;;;23.00;62.00;;;;;;7908936;28;20184;-50
2022/03/19 12:50:53;;;;;;;9.70;6.25;;;23.00;62.20;;;;;;7904168;28;20193;-51
2022/03/19 12:54:46;;;;;;;10.88;6.57;;;22.90;62.20;;;;;;7911570;28;20613;-50
2022/03/19 12:58:39;;;;;;;13.10;6.05;;;22.90;61.50;;;;;;7930118;28;20203;-47
2022/03/19 13:02:26;;;;;;;12.38;6.00;;;22.90;62.00;;;;;;7918755;28;20204;-52
2022/03/19 13:06:14;;;;;;;9.40;5.88;;;22.80;62.00;;;;;;7905051;28;20180;-49
2022/03/19 13:10:00;;;;;;;11.55;6.18;;;22.80;62.00;;;;;;7905395;28;20180;-48
2022/03/19 13:13:47;;;;;;;9.43;5.70;;;22.70;62.10;;;;;;7932113;28;20287;-52
2022/03/19 13:17:34;;;;;;;11.07;5.63;;;22.70;62.10;;;;;;7931810;28;20195;-48
2022/03/19 13:21:21;;;;;;;8.43;5.38;;;22.70;62.10;;;;;;7931652;28;20172;-51
2022/03/19 13:25:07;;;;;;;15.68;5.97;;;22.70;62.10;;;;;;7931743;28;20566;-48
2022/03/19 13:29:10;;;;;;;11.45;6.68;;;22.60;62.00;;;;;;7931825;28;20179;-48
2022/03/19 13:32:59;;;;;;;10.85;6.05;;;22.60;61.50;;;;;;7932562;28;20661;-50
2022/03/19 13:36:56;;;;;;;13.93;6.43;;;22.60;62.00;;;;;;7912867;28;20204;-48
2022/03/19 13:40:43;;;;;;;9.75;7.10;;;22.50;61.80;;;;;;7900651;28;20243;-51
2022/03/19 13:44:30;;;;;;;10.52;6.18;;;22.50;61.00;;;;;;7911183;28;20257;-49
2022/03/19 13:48:22;;;;;;;10.13;6.93;;;22.50;61.50;;;;;;7924272;28;20176;-48
2022/03/19 13:52:43;;;;;;;12.65;6.32;;;22.50;61.20;;;;;;7917127;28;20219;-48
2022/03/19 13:56:29;;;;;;;10.60;5.93;;;22.40;61.10;;;;;;7931522;28;20268;-48
2022/03/19 14:00:15;;;;;;;9.20;6.72;;;22.40;61.40;;;;;;7903268;28;20237;-51
2022/03/19 14:04:01;;;;;;;10.57;6.57;;;22.40;60.80;;;;;;7900324;28;20198;-51
2022/03/19 14:07:46;;;;;;;9.27;6.18;;;22.30;60.70;;;;;;7910551;28;20180;-51
2022/03/19 14:11:39;;;;;;;13.48;7.82;;;22.30;60.80;;;;;;7931375;28;20183;-55
2022/03/19 14:15:25;;;;;;;10.52;6.28;;;22.30;60.00;;;;;;7918595;28;20207;-50
2022/03/19 14:19:10;;;;;;;8.27;6.00;;;22.30;61.00;;;;;;7921537;28;20184;-48
2022/03/19 14:22:56;;;;;;;15.07;7.88;;;22.20;61.40;;;;;;7905013;28;20230;-49
2022/03/19 14:26:44;;;;;;;17.90;7.72;;;22.20;58.60;;;;;;7928884;28;20206;-52
2022/03/19 14:30:30;;;;;;;10.60;5.68;;;22.10;59.30;;;;;;7923113;28;20185;-49
2022/03/19 14:34:16;;;;;;;9.80;6.47;;;22.10;60.80;;;;;;7912916;28;20204;-48
2022/03/19 14:38:01;;;;;;;13.02;7.25;;;22.10;60.40;;;;;;7928752;27;20204;-50
2022/03/19 14:41:47;;;;;;;9.90;6.82;;;22.10;60.40;;;;;;7905571;28;20184;-52
2022/03/19 14:45:33;;;;;;;11.38;6.40;;;22.10;60.30;;;;;;7926346;28;20192;-52
2022/03/19 14:49:19;;;;;;;11.32;7.30;;;22.10;61.10;;;;;;7908749;28;20207;-53
2022/03/19 14:53:04;;;;;;;10.23;6.65;;;22.00;60.00;;;;;;7901851;28;20205;-53
2022/03/19 14:56:50;;;;;;;13.43;6.85;;;22.00;59.70;;;;;;7928678;28;20192;-50
2022/03/19 15:00:36;;;;;;;12.23;6.60;;;22.00;59.90;;;;;;7904840;28;20790;-51
2022/03/19 15:04:21;;;;;;;13.20;7.38;;;22.00;59.80;;;;;;7939443;27;20192;-54
2022/03/19 15:08:07;;;;;;;12.65;7.18;;;22.00;58.40;;;;;;7906564;28;20180;-53
2022/03/19 15:11:52;;;;;;;13.27;7.88;;;21.90;59.60;;;;;;7906467;28;20188;-50
2022/03/19 15:15:38;;;;;;;13.10;7.15;;;21.90;58.70;;;;;;7909687;28;20200;-51
2022/03/19 15:19:23;;;;;;;13.98;7.90;;;21.90;58.70;;;;;;7915251;28;20224;-51
2022/03/19 15:23:09;;;;;;;11.45;7.10;;;21.90;58.50;;;;;;7933676;28;20560;-49
2022/03/19 15:26:56;;;;;;;9.93;6.70;;;21.80;58.80;;;;;;7934478;28;20264;-54
2022/03/19 15:30:41;;;;;;;11.60;7.25;;;21.80;58.80;;;;;;7934342;28;20207;-52
2022/03/19 15:34:26;;;;;;;19.50;7.60;;;21.80;58.90;;;;;;7931086;28;20206;-52
2022/03/19 15:38:12;;;;;;;11.68;7.85;;;21.80;58.50;;;;;;7908600;28;20200;-50
2022/03/19 15:41:58;;;;;;;16.63;7.30;;;21.80;57.70;;;;;;7904044;28;20172;-50
2022/03/19 15:45:43;;;;;;;18.27;8.07;;;21.80;58.10;;;;;;7903133;28;20200;-51
2022/03/19 15:49:29;;;;;;;12.02;7.47;;;21.70;57.60;;;;;;7903752;28;20340;-49
2022/03/19 15:53:14;;;;;;;12.52;6.57;;;21.70;58.40;;;;;;7903919;28;20595;-50
2022/03/19 15:57:00;;;;;;;11.60;6.75;;;21.70;58.90;;;;;;7903832;28;20729;-50
2022/03/19 16:00:46;;;;;;;16.83;7.38;;;21.70;58.60;;;;;;7903416;28;20168;-50
2022/03/19 16:04:31;;;;;;;15.40;7.03;;;21.70;58.30;;;;;;7904206;28;20547;-52
2022/03/19 16:08:16;;;;;;;12.57;7.50;;;21.70;58.40;;;;;;7907001;28;20275;-51
2022/03/19 16:12:02;;;;;;;13.43;7.13;;;21.70;57.80;;;;;;7934321;28;20693;-51
2022/03/19 16:15:48;;;;;;;15.88;8.15;;;21.70;58.10;;;;;;7934801;28;20282;-51
2022/03/19 16:19:33;;;;;;;18.08;7.60;;;21.70;57.90;;;;;;7934612;28;20179;-50
2022/03/19 16:23:21;;;;;;;21.48;7.82;;;21.70;58.10;;;;;;7907798;28;20261;-51
2022/03/19 16:27:06;;;;;;;17.95;8.88;;;21.70;58.50;;;;;;7903025;28;20179;-52
2022/03/19 16:30:52;;;;;;;18.73;8.27;;;21.70;57.20;;;;;;7902158;28;20200;-52
2022/03/19 16:34:37;;;;;;;16.60;8.15;;;21.60;57.80;;;;;;7912582;28;20242;-52
2022/03/19 16:38:23;;;;;;;15.43;7.97;;;21.60;57.70;;;;;;7934706;28;20203;-52
2022/03/19 16:42:09;;;;;;;17.08;7.70;;;21.50;57.30;;;;;;7934086;28;20200;-53
2022/03/19 16:45:54;;;;;;;16.73;7.88;;;21.50;57.40;;;;;;7934241;28;20176;-52
2022/03/19 16:49:40;;;;;;;22.10;7.93;;;21.50;57.20;;;;;;7922170;28;20184;-53
2022/03/19 16:53:25;;;;;;;11.13;7.50;;;21.40;57.00;;;;;;7902107;28;20200;-52
2022/03/19 16:57:11;;;;;;;16.85;7.82;;;21.40;56.90;;;;;;7902012;28;20254;-53
2022/03/19 17:00:56;;;;;;;12.02;7.40;;;21.40;56.60;;;;;;7901751;28;20263;-54
2022/03/19 17:04:42;;;;;;;14.93;7.45;;;21.30;56.50;;;;;;7901596;28;20606;-54
2022/03/19 17:08:27;;;;;;;14.65;7.97;;;21.30;56.50;;;;;;7901841;28;20222;-51
2022/03/19 17:12:13;;;;;;;12.77;7.78;;;21.30;56.50;;;;;;7901481;28;20200;-51
2022/03/19 17:15:58;;;;;;;13.88;7.70;;;21.30;56.30;;;;;;7901712;28;20593;-52
2022/03/19 17:19:44;;;;;;;14.45;8.45;;;21.30;56.30;;;;;;7901213;28;20169;-52
2022/03/19 17:23:29;;;;;;;12.23;8.07;;;21.30;56.30;;;;;;7900559;28;20197;-51
2022/03/19 17:27:15;;;;;;;12.85;7.72;;;21.20;56.40;;;;;;7901380;28;20642;-52
2022/03/19 17:31:01;;;;;;;15.23;8.23;;;21.30;56.10;;;;;;7900905;28;20673;-51
2022/03/19 17:34:47;;;;;;;13.57;8.13;;;21.20;56.30;;;;;;7901050;28;20593;-50
2022/03/19 17:38:32;;;;;;;9.93;7.85;;;21.30;56.30;;;;;;7900977;28;20258;-51
2022/03/19 17:42:17;;;;;;;11.10;7.57;;;21.20;56.00;;;;;;7901120;28;20221;-52
2022/03/19 17:46:04;;;;;;;9.98;7.45;;;21.20;55.90;;;;;;7900845;28;20302;-50
2022/03/19 17:49:52;;;;;;;9.77;7.57;;;21.20;55.70;;;;;;7900415;28;20192;-50
2022/03/19 17:53:38;;;;;;;13.85;7.43;;;21.10;55.70;;;;;;7900577;28;20864;-51
2022/03/19 17:57:23;;;;;;;12.15;8.02;;;21.10;55.80;;;;;;7900497;28;20266;-53
2022/03/19 18:01:09;;;;;;;12.52;8.02;;;21.10;55.70;;;;;;7900336;28;20222;-50
2022/03/19 18:04:54;;;;;;;12.23;8.60;;;21.10;55.60;;;;;;7900378;28;20263;-51
2022/03/19 18:08:40;;;;;;;11.48;8.32;;;21.10;55.40;;;;;;7900716;28;20192;-52
2022/03/19 18:12:25;;;;;;;12.60;7.88;;;21.00;55.30;;;;;;7900026;28;20655;-52
2022/03/19 18:16:11;;;;;;;11.70;8.15;;;21.00;55.30;;;;;;7900295;28;20226;-51
2022/03/19 18:19:56;;;;;;;13.00;8.43;;;21.00;56.10;;;;;;7900127;28;20179;-52
2022/03/19 18:23:42;;;;;;;12.65;8.60;;;21.00;55.50;;;;;;7900133;28;20727;-50
2022/03/19 18:27:27;;;;;;;11.57;8.70;;;21.00;55.40;;;;;;7900240;28;20177;-51
2022/03/19 18:31:17;;;;;;;13.60;9.15;;;21.00;55.50;;;;;;7899663;28;20678;-52
2022/03/19 18:35:03;;;;;;;12.55;8.68;;;21.00;55.50;;;;;;7901353;28;20221;-54
2022/03/19 18:38:49;;;;;;;13.02;9.25;;;20.90;55.60;;;;;;7906757;28;20204;-54
2022/03/19 18:42:35;;;;;;;11.82;8.25;;;20.90;55.50;;;;;;7906544;28;20220;-54
2022/03/19 18:46:20;;;;;;;15.48;9.40;;;20.90;55.60;;;;;;7910197;28;20183;-52
2022/03/19 18:50:07;;;;;;;13.93;8.93;;;20.90;55.50;;;;;;7937715;28;20211;-51
2022/03/19 18:53:54;;;;;;;13.55;9.23;;;20.90;55.50;;;;;;7937929;28;20662;-53
2022/03/19 18:57:40;;;;;;;12.80;8.93;;;20.90;55.60;;;;;;7937545;28;20691;-52
2022/03/19 19:01:26;;;;;;;12.55;9.23;;;20.90;55.50;;;;;;7937133;28;20653;-53
2022/03/19 19:05:11;;;;;;;14.75;9.80;;;20.80;55.50;;;;;;7937069;28;20596;-52
2022/03/19 19:08:57;;;;;;;13.57;9.32;;;20.80;55.30;;;;;;7935024;28;20180;-53
2022/03/19 19:12:42;;;;;;;19.60;9.38;;;20.90;55.50;;;;;;7904529;28;20220;-52
2022/03/19 19:16:28;;;;;;;20.25;9.02;;;20.80;56.10;;;;;;7905063;28;20234;-53
2022/03/19 19:20:14;;;;;;;20.30;8.65;;;20.90;56.10;;;;;;7919352;28;20184;-52
2022/03/19 19:24:00;;;;;;;30.25;9.00;;;20.80;56.50;;;;;;7923183;28;20785;-52
2022/03/19 19:27:45;;;;;;;27.20;9.07;;;20.90;56.50;;;;;;7926635;28;20256;-51
2022/03/19 19:31:31;;;;;;;33.90;9.95;;;20.90;57.50;;;;;;7925854;28;20261;-52
2022/03/19 19:35:17;;;;;;;23.65;10.00;;;20.90;56.70;;;;;;7911019;28;20209;-52